Terminal Aerodrome Forecast
Issued by NWS Shreveport, LA

Home | Current Version | Previous Version | Text Only | Print | Product List | Glossary On
Versions: 1 2 3 4 5 6 7 8 9 10 11 12 13
000
FTUS44 KSHV 012323
TAFSHV
TAF
KSHV 012323Z 0200/0224 16004KT P6SM FEW050 BKN180 BKN250
     FM021400 VRB04KT P6SM SCT040 BKN100 BKN250
     FM021800 15006KT P6SM VCTS SCT045CB BKN120 BKN250=

USA.gov is the U.S. government's official web portal to all federal, state and local government web resources and services.